sensor_id;sensor_type;location;lat;lon;timestamp;P1;durP1;ratioP1;P2;durP2;ratioP2
1262;SDS011;62267;50.112;8.704;2022-12-18T00:01:40;32.17;;;15.82;;
1262;SDS011;62267;50.112;8.704;2022-12-18T00:04:14;30.75;;;16.02;;
1262;SDS011;62267;50.112;8.704;2022-12-18T00:06:42;33.30;;;16.00;;
1262;SDS011;62267;50.112;8.704;2022-12-18T00:09:10;33.65;;;15.57;;
1262;SDS011;62267;50.112;8.704;2022-12-18T00:11:37;32.95;;;17.05;;
1262;SDS011;62267;50.112;8.704;2022-12-18T00:14:04;43.13;;;16.60;;
1262;SDS011;62267;50.112;8.704;2022-12-18T00:16:32;36.75;;;15.63;;
1262;SDS011;62267;50.112;8.704;2022-12-18T00:19:03;34.08;;;15.43;;
1262;SDS011;62267;50.112;8.704;2022-12-18T00:21:31;39.55;;;16.42;;
1262;SDS011;62267;50.112;8.704;2022-12-18T00:24:00;36.45;;;16.10;;
1262;SDS011;62267;50.112;8.704;2022-12-18T00:26:28;35.53;;;15.00;;
1262;SDS011;62267;50.112;8.704;2022-12-18T00:29:06;33.05;;;16.25;;
1262;SDS011;62267;50.112;8.704;2022-12-18T00:31:35;27.98;;;13.82;;
1262;SDS011;62267;50.112;8.704;2022-12-18T00:34:02;31.10;;;14.25;;
1262;SDS011;62267;50.112;8.704;2022-12-18T00:36:31;42.63;;;16.80;;
1262;SDS011;62267;50.112;8.704;2022-12-18T00:39:00;33.92;;;16.27;;
1262;SDS011;62267;50.112;8.704;2022-12-18T00:41:28;34.53;;;14.13;;
1262;SDS011;62267;50.112;8.704;2022-12-18T00:44:15;31.55;;;14.80;;
1262;SDS011;62267;50.112;8.704;2022-12-18T00:46:44;36.10;;;14.88;;
1262;SDS011;62267;50.112;8.704;2022-12-18T00:49:11;32.60;;;15.43;;
1262;SDS011;62267;50.112;8.704;2022-12-18T00:51:39;35.08;;;15.63;;
1262;SDS011;62267;50.112;8.704;2022-12-18T00:54:06;30.98;;;15.15;;
1262;SDS011;62267;50.112;8.704;2022-12-18T00:56:37;33.22;;;14.70;;
1262;SDS011;62267;50.112;8.704;2022-12-18T00:59:15;34.72;;;15.07;;
1262;SDS011;62267;50.112;8.704;2022-12-18T01:01:42;29.00;;;13.52;;
1262;SDS011;62267;50.112;8.704;2022-12-18T01:04:09;30.10;;;15.23;;
1262;SDS011;62267;50.112;8.704;2022-12-18T01:06:38;29.67;;;13.85;;
1262;SDS011;62267;50.112;8.704;2022-12-18T01:09:05;30.88;;;14.77;;
1262;SDS011;62267;50.112;8.704;2022-12-18T01:11:35;26.42;;;13.93;;
1262;SDS011;62267;50.112;8.704;2022-12-18T01:14:03;30.27;;;14.80;;
1262;SDS011;62267;50.112;8.704;2022-12-18T01:16:31;28.48;;;15.00;;
1262;SDS011;62267;50.112;8.704;2022-12-18T01:18:58;35.88;;;16.08;;
1262;SDS011;62267;50.112;8.704;2022-12-18T01:21:26;36.72;;;16.95;;
1262;SDS011;62267;50.112;8.704;2022-12-18T01:23:54;29.30;;;15.57;;
1262;SDS011;62267;50.112;8.704;2022-12-18T01:26:22;39.90;;;17.58;;
1262;SDS011;62267;50.112;8.704;2022-12-18T01:28:50;35.53;;;15.13;;
1262;SDS011;62267;50.112;8.704;2022-12-18T01:31:26;41.10;;;17.35;;
1262;SDS011;62267;50.112;8.704;2022-12-18T01:33:54;30.63;;;15.05;;
1262;SDS011;62267;50.112;8.704;2022-12-18T01:36:23;33.03;;;15.30;;
1262;SDS011;62267;50.112;8.704;2022-12-18T01:38:51;34.35;;;15.77;;
1262;SDS011;62267;50.112;8.704;2022-12-18T01:41:21;27.02;;;14.02;;
1262;SDS011;62267;50.112;8.704;2022-12-18T01:43:50;33.92;;;15.85;;
1262;SDS011;62267;50.112;8.704;2022-12-18T01:46:18;31.13;;;15.88;;
1262;SDS011;62267;50.112;8.704;2022-12-18T01:48:50;33.92;;;15.60;;
1262;SDS011;62267;50.112;8.704;2022-12-18T01:51:19;36.55;;;15.98;;
1262;SDS011;62267;50.112;8.704;2022-12-18T01:53:47;35.92;;;15.27;;
1262;SDS011;62267;50.112;8.704;2022-12-18T01:56:16;30.05;;;14.15;;
1262;SDS011;62267;50.112;8.704;2022-12-18T01:58:52;22.30;;;12.77;;
1262;SDS011;62267;50.112;8.704;2022-12-18T02:01:21;29.65;;;14.90;;
1262;SDS011;62267;50.112;8.704;2022-12-18T02:03:50;36.13;;;14.98;;
1262;SDS011;62267;50.112;8.704;2022-12-18T02:06:24;33.50;;;15.40;;
1262;SDS011;62267;50.112;8.704;2022-12-18T02:09:05;35.22;;;14.45;;
1262;SDS011;62267;50.112;8.704;2022-12-18T02:14:30;34.78;;;15.98;;
1262;SDS011;62267;50.112;8.704;2022-12-18T02:24:35;38.00;;;19.45;;
1262;SDS011;62267;50.112;8.704;2022-12-18T02:27:05;40.47;;;17.00;;
1262;SDS011;62267;50.112;8.704;2022-12-18T02:29:40;25.83;;;13.32;;
1262;SDS011;62267;50.112;8.704;2022-12-18T02:32:15;23.85;;;14.18;;
1262;SDS011;62267;50.112;8.704;2022-12-18T02:34:44;39.70;;;15.80;;
1262;SDS011;62267;50.112;8.704;2022-12-18T02:37:14;35.95;;;16.10;;
1262;SDS011;62267;50.112;8.704;2022-12-18T02:39:43;28.88;;;14.15;;
1262;SDS011;62267;50.112;8.704;2022-12-18T02:42:13;34.42;;;15.43;;
1262;SDS011;62267;50.112;8.704;2022-12-18T02:44:43;32.90;;;15.93;;
1262;SDS011;62267;50.112;8.704;2022-12-18T02:47:12;31.70;;;14.55;;
1262;SDS011;62267;50.112;8.704;2022-12-18T02:52:34;25.88;;;13.25;;
1262;SDS011;62267;50.112;8.704;2022-12-18T02:58:03;32.33;;;14.13;;
1262;SDS011;62267;50.112;8.704;2022-12-18T03:00:41;34.15;;;14.80;;
1262;SDS011;62267;50.112;8.704;2022-12-18T03:03:16;32.60;;;14.77;;
1262;SDS011;62267;50.112;8.704;2022-12-18T03:08:22;31.02;;;14.45;;
1262;SDS011;62267;50.112;8.704;2022-12-18T03:11:01;30.85;;;15.23;;
1262;SDS011;62267;50.112;8.704;2022-12-18T03:13:35;32.05;;;13.27;;
1262;SDS011;62267;50.112;8.704;2022-12-18T03:16:05;29.00;;;15.20;;
1262;SDS011;62267;50.112;8.704;2022-12-18T03:21:03;35.92;;;17.45;;
1262;SDS011;62267;50.112;8.704;2022-12-18T03:23:36;36.30;;;14.88;;
1262;SDS011;62267;50.112;8.704;2022-12-18T03:26:07;41.38;;;18.77;;
1262;SDS011;62267;50.112;8.704;2022-12-18T03:28:39;28.10;;;15.00;;
1262;SDS011;62267;50.112;8.704;2022-12-18T03:31:10;35.80;;;16.67;;
1262;SDS011;62267;50.112;8.704;2022-12-18T03:33:45;28.27;;;14.48;;
1262;SDS011;62267;50.112;8.704;2022-12-18T03:36:14;30.08;;;15.07;;
1262;SDS011;62267;50.112;8.704;2022-12-18T03:38:41;34.67;;;16.02;;
1262;SDS011;62267;50.112;8.704;2022-12-18T03:41:15;33.33;;;15.52;;
1262;SDS011;62267;50.112;8.704;2022-12-18T03:44:19;30.52;;;15.90;;
1262;SDS011;62267;50.112;8.704;2022-12-18T03:49:26;27.30;;;15.88;;
1262;SDS011;62267;50.112;8.704;2022-12-18T03:51:59;40.63;;;16.20;;
1262;SDS011;62267;50.112;8.704;2022-12-18T03:54:28;41.08;;;16.50;;
1262;SDS011;62267;50.112;8.704;2022-12-18T03:57:18;36.60;;;15.70;;
1262;SDS011;62267;50.112;8.704;2022-12-18T03:59:49;36.05;;;16.55;;
1262;SDS011;62267;50.112;8.704;2022-12-18T04:02:19;33.35;;;15.73;;
1262;SDS011;62267;50.112;8.704;2022-12-18T04:04:49;32.20;;;15.88;;
1262;SDS011;62267;50.112;8.704;2022-12-18T04:07:17;31.63;;;15.68;;
1262;SDS011;62267;50.112;8.704;2022-12-18T04:09:45;32.47;;;15.02;;
1262;SDS011;62267;50.112;8.704;2022-12-18T04:12:13;36.30;;;16.38;;
1262;SDS011;62267;50.112;8.704;2022-12-18T04:14:41;36.50;;;15.80;;
1262;SDS011;62267;50.112;8.704;2022-12-18T04:17:08;27.88;;;14.88;;
1262;SDS011;62267;50.112;8.704;2022-12-18T04:19:36;31.88;;;14.18;;
1262;SDS011;62267;50.112;8.704;2022-12-18T04:22:03;34.00;;;15.25;;
1262;SDS011;62267;50.112;8.704;2022-12-18T04:24:36;38.95;;;16.67;;
1262;SDS011;62267;50.112;8.704;2022-12-18T04:27:11;34.95;;;15.75;;
1262;SDS011;62267;50.112;8.704;2022-12-18T04:29:42;32.92;;;15.73;;
1262;SDS011;62267;50.112;8.704;2022-12-18T04:32:09;31.45;;;14.70;;
1262;SDS011;62267;50.112;8.704;2022-12-18T04:34:38;31.77;;;14.65;;
1262;SDS011;62267;50.112;8.704;2022-12-18T04:37:05;32.33;;;14.18;;
1262;SDS011;62267;50.112;8.704;2022-12-18T04:39:33;35.83;;;17.65;;
1262;SDS011;62267;50.112;8.704;2022-12-18T04:42:05;35.13;;;17.33;;
1262;SDS011;62267;50.112;8.704;2022-12-18T04:44:33;33.67;;;16.02;;
1262;SDS011;62267;50.112;8.704;2022-12-18T04:47:00;30.83;;;15.77;;
1262;SDS011;62267;50.112;8.704;2022-12-18T04:49:27;27.52;;;15.35;;
1262;SDS011;62267;50.112;8.704;2022-12-18T04:51:54;34.97;;;16.13;;
1262;SDS011;62267;50.112;8.704;2022-12-18T04:54:22;29.65;;;14.35;;
1262;SDS011;62267;50.112;8.704;2022-12-18T04:56:49;32.60;;;15.35;;
1262;SDS011;62267;50.112;8.704;2022-12-18T04:59:16;33.22;;;15.95;;
1262;SDS011;62267;50.112;8.704;2022-12-18T05:01:43;28.13;;;15.90;;
1262;SDS011;62267;50.112;8.704;2022-12-18T05:04:12;33.00;;;15.90;;
1262;SDS011;62267;50.112;8.704;2022-12-18T05:06:39;31.63;;;15.88;;
1262;SDS011;62267;50.112;8.704;2022-12-18T05:09:06;31.92;;;14.65;;
1262;SDS011;62267;50.112;8.704;2022-12-18T05:11:34;26.25;;;13.88;;
1262;SDS011;62267;50.112;8.704;2022-12-18T05:14:02;34.05;;;15.95;;
1262;SDS011;62267;50.112;8.704;2022-12-18T05:16:29;27.83;;;14.95;;
1262;SDS011;62267;50.112;8.704;2022-12-18T05:18:57;29.85;;;14.88;;
1262;SDS011;62267;50.112;8.704;2022-12-18T05:21:27;32.97;;;14.48;;
1262;SDS011;62267;50.112;8.704;2022-12-18T05:23:54;29.85;;;14.82;;
1262;SDS011;62267;50.112;8.704;2022-12-18T05:26:22;31.10;;;13.70;;
1262;SDS011;62267;50.112;8.704;2022-12-18T05:28:49;40.45;;;19.30;;
1262;SDS011;62267;50.112;8.704;2022-12-18T05:31:16;35.17;;;15.43;;
1262;SDS011;62267;50.112;8.704;2022-12-18T05:33:43;29.02;;;14.18;;
1262;SDS011;62267;50.112;8.704;2022-12-18T05:36:11;28.73;;;14.15;;
1262;SDS011;62267;50.112;8.704;2022-12-18T05:38:38;34.45;;;15.25;;
1262;SDS011;62267;50.112;8.704;2022-12-18T05:41:06;24.42;;;13.25;;
1262;SDS011;62267;50.112;8.704;2022-12-18T05:43:34;26.02;;;14.63;;
1262;SDS011;62267;50.112;8.704;2022-12-18T05:46:05;26.83;;;15.25;;
1262;SDS011;62267;50.112;8.704;2022-12-18T05:48:33;32.17;;;15.48;;
1262;SDS011;62267;50.112;8.704;2022-12-18T05:51:04;30.73;;;14.50;;
1262;SDS011;62267;50.112;8.704;2022-12-18T05:53:32;27.13;;;14.85;;
1262;SDS011;62267;50.112;8.704;2022-12-18T05:56:00;31.02;;;16.48;;
1262;SDS011;62267;50.112;8.704;2022-12-18T05:58:29;31.50;;;14.70;;
1262;SDS011;62267;50.112;8.704;2022-12-18T06:00:57;27.48;;;13.80;;
1262;SDS011;62267;50.112;8.704;2022-12-18T06:03:24;31.73;;;13.95;;
1262;SDS011;62267;50.112;8.704;2022-12-18T06:06:00;38.83;;;16.13;;
1262;SDS011;62267;50.112;8.704;2022-12-18T06:08:27;30.10;;;14.38;;
1262;SDS011;62267;50.112;8.704;2022-12-18T06:10:55;35.35;;;15.93;;
1262;SDS011;62267;50.112;8.704;2022-12-18T06:13:22;31.73;;;16.75;;
1262;SDS011;62267;50.112;8.704;2022-12-18T06:15:49;32.17;;;14.98;;
1262;SDS011;62267;50.112;8.704;2022-12-18T06:18:16;35.08;;;14.45;;
1262;SDS011;62267;50.112;8.704;2022-12-18T06:20:44;30.30;;;14.25;;
1262;SDS011;62267;50.112;8.704;2022-12-18T06:23:11;29.98;;;14.35;;
1262;SDS011;62267;50.112;8.704;2022-12-18T06:25:39;30.27;;;15.20;;
1262;SDS011;62267;50.112;8.704;2022-12-18T06:28:07;25.52;;;14.40;;
1262;SDS011;62267;50.112;8.704;2022-12-18T06:30:34;28.20;;;14.20;;
1262;SDS011;62267;50.112;8.704;2022-12-18T06:33:02;32.10;;;16.15;;
1262;SDS011;62267;50.112;8.704;2022-12-18T06:35:29;26.38;;;14.80;;
1262;SDS011;62267;50.112;8.704;2022-12-18T06:37:57;32.22;;;15.25;;
1262;SDS011;62267;50.112;8.704;2022-12-18T06:40:24;23.60;;;13.88;;
1262;SDS011;62267;50.112;8.704;2022-12-18T06:42:52;31.50;;;15.77;;
1262;SDS011;62267;50.112;8.704;2022-12-18T06:45:20;27.20;;;15.05;;
1262;SDS011;62267;50.112;8.704;2022-12-18T06:47:48;35.42;;;15.85;;
1262;SDS011;62267;50.112;8.704;2022-12-18T06:50:15;33.88;;;15.70;;
1262;SDS011;62267;50.112;8.704;2022-12-18T06:52:42;30.38;;;15.20;;
1262;SDS011;62267;50.112;8.704;2022-12-18T06:55:11;28.00;;;15.02;;
1262;SDS011;62267;50.112;8.704;2022-12-18T06:57:38;35.25;;;15.60;;
1262;SDS011;62267;50.112;8.704;2022-12-18T07:00:05;33.50;;;15.55;;
1262;SDS011;62267;50.112;8.704;2022-12-18T07:02:33;29.05;;;14.65;;
1262;SDS011;62267;50.112;8.704;2022-12-18T07:05:01;33.83;;;17.85;;
1262;SDS011;62267;50.112;8.704;2022-12-18T07:07:36;32.95;;;16.27;;
1262;SDS011;62267;50.112;8.704;2022-12-18T07:10:03;32.15;;;14.45;;
1262;SDS011;62267;50.112;8.704;2022-12-18T07:12:31;36.33;;;18.33;;
1262;SDS011;62267;50.112;8.704;2022-12-18T07:14:58;34.17;;;16.20;;
1262;SDS011;62267;50.112;8.704;2022-12-18T07:17:25;42.70;;;17.52;;
1262;SDS011;62267;50.112;8.704;2022-12-18T07:19:54;36.15;;;16.00;;
1262;SDS011;62267;50.112;8.704;2022-12-18T07:22:21;30.00;;;15.18;;
1262;SDS011;62267;50.112;8.704;2022-12-18T07:24:49;39.42;;;16.73;;
1262;SDS011;62267;50.112;8.704;2022-12-18T07:27:18;26.13;;;13.98;;
1262;SDS011;62267;50.112;8.704;2022-12-18T07:29:46;38.53;;;16.50;;
1262;SDS011;62267;50.112;8.704;2022-12-18T07:32:14;37.25;;;17.50;;
1262;SDS011;62267;50.112;8.704;2022-12-18T07:34:41;39.97;;;16.10;;
1262;SDS011;62267;50.112;8.704;2022-12-18T07:37:09;31.55;;;16.10;;
1262;SDS011;62267;50.112;8.704;2022-12-18T07:39:36;28.88;;;16.02;;
1262;SDS011;62267;50.112;8.704;2022-12-18T07:42:03;34.03;;;16.25;;
1262;SDS011;62267;50.112;8.704;2022-12-18T07:44:50;28.40;;;14.77;;
1262;SDS011;62267;50.112;8.704;2022-12-18T07:47:17;30.92;;;15.15;;
1262;SDS011;62267;50.112;8.704;2022-12-18T07:49:44;30.80;;;15.65;;
1262;SDS011;62267;50.112;8.704;2022-12-18T07:52:11;28.63;;;15.55;;
1262;SDS011;62267;50.112;8.704;2022-12-18T07:54:38;30.67;;;15.80;;
1262;SDS011;62267;50.112;8.704;2022-12-18T07:57:09;30.95;;;14.55;;
1262;SDS011;62267;50.112;8.704;2022-12-18T07:59:56;34.10;;;16.73;;
1262;SDS011;62267;50.112;8.704;2022-12-18T08:02:23;34.97;;;16.02;;
1262;SDS011;62267;50.112;8.704;2022-12-18T08:04:50;29.38;;;16.05;;
1262;SDS011;62267;50.112;8.704;2022-12-18T08:07:20;25.52;;;14.30;;
1262;SDS011;62267;50.112;8.704;2022-12-18T08:09:47;28.85;;;15.05;;
1262;SDS011;62267;50.112;8.704;2022-12-18T08:12:14;33.17;;;17.25;;
1262;SDS011;62267;50.112;8.704;2022-12-18T08:14:41;27.88;;;15.50;;
1262;SDS011;62267;50.112;8.704;2022-12-18T08:17:08;31.60;;;15.60;;
1262;SDS011;62267;50.112;8.704;2022-12-18T08:19:36;30.13;;;15.57;;
1262;SDS011;62267;50.112;8.704;2022-12-18T08:22:03;32.95;;;16.17;;
1262;SDS011;62267;50.112;8.704;2022-12-18T08:24:30;32.03;;;15.95;;
1262;SDS011;62267;50.112;8.704;2022-12-18T08:26:57;30.00;;;16.90;;
1262;SDS011;62267;50.112;8.704;2022-12-18T08:29:44;34.47;;;16.15;;
1262;SDS011;62267;50.112;8.704;2022-12-18T08:32:11;30.05;;;14.73;;
1262;SDS011;62267;50.112;8.704;2022-12-18T08:34:39;30.35;;;15.52;;
1262;SDS011;62267;50.112;8.704;2022-12-18T08:37:06;29.10;;;15.40;;
1262;SDS011;62267;50.112;8.704;2022-12-18T08:39:33;38.72;;;15.95;;
1262;SDS011;62267;50.112;8.704;2022-12-18T08:42:00;32.17;;;14.88;;
1262;SDS011;62267;50.112;8.704;2022-12-18T08:44:46;30.98;;;17.38;;
1262;SDS011;62267;50.112;8.704;2022-12-18T08:47:13;37.40;;;17.95;;
1262;SDS011;62267;50.112;8.704;2022-12-18T08:49:41;30.90;;;14.98;;
1262;SDS011;62267;50.112;8.704;2022-12-18T08:52:08;31.27;;;16.20;;
1262;SDS011;62267;50.112;8.704;2022-12-18T08:54:35;30.10;;;15.88;;
1262;SDS011;62267;50.112;8.704;2022-12-18T08:57:02;31.70;;;16.77;;
1262;SDS011;62267;50.112;8.704;2022-12-18T08:59:30;31.60;;;17.27;;
1262;SDS011;62267;50.112;8.704;2022-12-18T09:01:57;32.15;;;18.45;;
1262;SDS011;62267;50.112;8.704;2022-12-18T09:04:26;30.20;;;16.90;;
1262;SDS011;62267;50.112;8.704;2022-12-18T09:06:53;35.45;;;17.38;;
1262;SDS011;62267;50.112;8.704;2022-12-18T09:09:20;29.50;;;16.63;;
1262;SDS011;62267;50.112;8.704;2022-12-18T09:11:48;31.92;;;15.85;;
1262;SDS011;62267;50.112;8.704;2022-12-18T09:14:15;30.23;;;17.50;;
1262;SDS011;62267;50.112;8.704;2022-12-18T09:16:42;30.38;;;18.08;;
1262;SDS011;62267;50.112;8.704;2022-12-18T09:19:09;45.67;;;22.83;;
1262;SDS011;62267;50.112;8.704;2022-12-18T09:21:37;36.75;;;20.30;;
1262;SDS011;62267;50.112;8.704;2022-12-18T09:24:11;36.72;;;21.50;;
1262;SDS011;62267;50.112;8.704;2022-12-18T09:26:39;40.58;;;21.60;;
1262;SDS011;62267;50.112;8.704;2022-12-18T09:29:09;35.53;;;21.52;;
1262;SDS011;62267;50.112;8.704;2022-12-18T09:31:36;41.60;;;22.55;;
1262;SDS011;62267;50.112;8.704;2022-12-18T09:34:05;45.90;;;23.63;;
1262;SDS011;62267;50.112;8.704;2022-12-18T09:36:33;43.55;;;21.67;;
1262;SDS011;62267;50.112;8.704;2022-12-18T09:42:02;40.17;;;23.58;;
1262;SDS011;62267;50.112;8.704;2022-12-18T09:44:39;40.88;;;23.73;;
1262;SDS011;62267;50.112;8.704;2022-12-18T09:50:22;46.40;;;21.77;;
1262;SDS011;62267;50.112;8.704;2022-12-18T09:52:52;47.80;;;24.95;;
1262;SDS011;62267;50.112;8.704;2022-12-18T09:55:24;42.63;;;24.55;;
1262;SDS011;62267;50.112;8.704;2022-12-18T09:58:02;45.67;;;23.90;;
1262;SDS011;62267;50.112;8.704;2022-12-18T10:00:31;47.15;;;25.42;;
1262;SDS011;62267;50.112;8.704;2022-12-18T10:02:59;41.38;;;24.00;;
1262;SDS011;62267;50.112;8.704;2022-12-18T10:08:01;49.90;;;26.02;;
1262;SDS011;62267;50.112;8.704;2022-12-18T10:13:18;49.03;;;24.20;;
1262;SDS011;62267;50.112;8.704;2022-12-18T10:18:29;47.65;;;24.13;;
1262;SDS011;62267;50.112;8.704;2022-12-18T10:21:03;47.40;;;24.23;;
1262;SDS011;62267;50.112;8.704;2022-12-18T10:23:39;50.80;;;23.15;;
1262;SDS011;62267;50.112;8.704;2022-12-18T10:26:13;49.35;;;24.17;;
1262;SDS011;62267;50.112;8.704;2022-12-18T10:28:41;42.90;;;23.85;;
1262;SDS011;62267;50.112;8.704;2022-12-18T10:31:16;52.38;;;25.50;;
1262;SDS011;62267;50.112;8.704;2022-12-18T10:33:44;43.85;;;23.38;;
1262;SDS011;62267;50.112;8.704;2022-12-18T10:36:13;44.97;;;24.30;;
1262;SDS011;62267;50.112;8.704;2022-12-18T10:38:41;48.83;;;22.58;;
1262;SDS011;62267;50.112;8.704;2022-12-18T10:43:47;45.15;;;21.80;;
1262;SDS011;62267;50.112;8.704;2022-12-18T10:46:15;42.90;;;23.92;;
1262;SDS011;62267;50.112;8.704;2022-12-18T10:51:30;49.83;;;22.65;;
1262;SDS011;62267;50.112;8.704;2022-12-18T10:56:34;51.83;;;23.25;;
1262;SDS011;62267;50.112;8.704;2022-12-18T10:59:03;41.83;;;20.40;;
1262;SDS011;62267;50.112;8.704;2022-12-18T11:01:49;44.53;;;22.88;;
1262;SDS011;62267;50.112;8.704;2022-12-18T11:04:24;50.78;;;23.48;;
1262;SDS011;62267;50.112;8.704;2022-12-18T11:07:16;50.22;;;23.65;;
1262;SDS011;62267;50.112;8.704;2022-12-18T11:09:39;43.42;;;21.55;;
1262;SDS011;62267;50.112;8.704;2022-12-18T11:14:44;49.72;;;24.42;;
1262;SDS011;62267;50.112;8.704;2022-12-18T11:19:52;47.10;;;22.77;;
1262;SDS011;62267;50.112;8.704;2022-12-18T11:22:26;52.45;;;24.95;;
1262;SDS011;62267;50.112;8.704;2022-12-18T11:24:55;55.13;;;23.27;;
1262;SDS011;62267;50.112;8.704;2022-12-18T11:27:47;48.40;;;24.50;;
1262;SDS011;62267;50.112;8.704;2022-12-18T11:30:22;43.47;;;23.35;;
1262;SDS011;62267;50.112;8.704;2022-12-18T11:32:58;41.65;;;21.38;;
1262;SDS011;62267;50.112;8.704;2022-12-18T11:38:18;46.75;;;22.08;;
1262;SDS011;62267;50.112;8.704;2022-12-18T11:40:47;48.50;;;23.70;;
1262;SDS011;62267;50.112;8.704;2022-12-18T11:43:17;46.40;;;24.25;;
1262;SDS011;62267;50.112;8.704;2022-12-18T11:46:33;49.70;;;23.27;;
1262;SDS011;62267;50.112;8.704;2022-12-18T11:48:44;49.35;;;23.13;;
1262;SDS011;62267;50.112;8.704;2022-12-18T11:51:19;45.42;;;22.67;;
1262;SDS011;62267;50.112;8.704;2022-12-18T11:53:52;55.03;;;25.70;;
1262;SDS011;62267;50.112;8.704;2022-12-18T11:56:28;51.30;;;23.20;;
1262;SDS011;62267;50.112;8.704;2022-12-18T11:59:00;47.72;;;22.13;;
1262;SDS011;62267;50.112;8.704;2022-12-18T12:01:36;37.90;;;21.05;;
1262;SDS011;62267;50.112;8.704;2022-12-18T12:04:32;48.25;;;23.88;;
1262;SDS011;62267;50.112;8.704;2022-12-18T12:07:12;46.67;;;22.67;;
1262;SDS011;62267;50.112;8.704;2022-12-18T12:09:52;46.25;;;20.73;;
1262;SDS011;62267;50.112;8.704;2022-12-18T12:12:44;45.58;;;21.95;;
1262;SDS011;62267;50.112;8.704;2022-12-18T12:18:06;47.55;;;22.42;;
1262;SDS011;62267;50.112;8.704;2022-12-18T12:20:53;41.72;;;20.85;;
1262;SDS011;62267;50.112;8.704;2022-12-18T12:25:56;47.35;;;23.38;;
1262;SDS011;62267;50.112;8.704;2022-12-18T12:28:37;57.33;;;26.08;;
1262;SDS011;62267;50.112;8.704;2022-12-18T12:31:30;46.42;;;21.80;;
1262;SDS011;62267;50.112;8.704;2022-12-18T12:39:15;44.47;;;22.10;;
1262;SDS011;62267;50.112;8.704;2022-12-18T12:41:43;53.00;;;23.17;;
1262;SDS011;62267;50.112;8.704;2022-12-18T12:44:32;44.60;;;21.73;;
1262;SDS011;62267;50.112;8.704;2022-12-18T12:47:01;44.83;;;23.77;;
1262;SDS011;62267;50.112;8.704;2022-12-18T12:49:33;50.53;;;25.10;;
1262;SDS011;62267;50.112;8.704;2022-12-18T12:52:10;42.88;;;21.95;;
1262;SDS011;62267;50.112;8.704;2022-12-18T12:54:39;41.72;;;21.52;;
1262;SDS011;62267;50.112;8.704;2022-12-18T12:57:16;41.20;;;21.83;;
1262;SDS011;62267;50.112;8.704;2022-12-18T12:59:57;48.03;;;22.02;;
1262;SDS011;62267;50.112;8.704;2022-12-18T13:02:32;43.67;;;21.50;;
1262;SDS011;62267;50.112;8.704;2022-12-18T13:07:50;52.97;;;22.35;;
1262;SDS011;62267;50.112;8.704;2022-12-18T13:12:56;50.63;;;24.20;;
1262;SDS011;62267;50.112;8.704;2022-12-18T13:15:25;47.10;;;23.20;;
1262;SDS011;62267;50.112;8.704;2022-12-18T13:18:03;43.78;;;20.27;;
1262;SDS011;62267;50.112;8.704;2022-12-18T13:20:33;54.50;;;23.65;;
1262;SDS011;62267;50.112;8.704;2022-12-18T13:23:00;49.03;;;22.70;;
1262;SDS011;62267;50.112;8.704;2022-12-18T13:25:29;38.10;;;19.77;;
1262;SDS011;62267;50.112;8.704;2022-12-18T13:33:34;45.30;;;20.75;;
1262;SDS011;62267;50.112;8.704;2022-12-18T13:36:12;49.92;;;24.20;;
1262;SDS011;62267;50.112;8.704;2022-12-18T13:38:42;39.00;;;21.83;;
1262;SDS011;62267;50.112;8.704;2022-12-18T13:43:49;46.13;;;22.92;;
1262;SDS011;62267;50.112;8.704;2022-12-18T13:49:05;48.42;;;22.65;;
1262;SDS011;62267;50.112;8.704;2022-12-18T13:51:44;46.13;;;22.10;;
1262;SDS011;62267;50.112;8.704;2022-12-18T13:56:50;47.53;;;22.67;;
1262;SDS011;62267;50.112;8.704;2022-12-18T13:59:22;42.97;;;20.42;;
1262;SDS011;62267;50.112;8.704;2022-12-18T14:04:34;46.72;;;21.23;;
1262;SDS011;62267;50.112;8.704;2022-12-18T14:09:31;37.58;;;19.92;;
1262;SDS011;62267;50.112;8.704;2022-12-18T14:12:02;43.28;;;21.77;;
1262;SDS011;62267;50.112;8.704;2022-12-18T14:14:49;48.17;;;22.27;;
1262;SDS011;62267;50.112;8.704;2022-12-18T14:17:20;40.83;;;21.20;;
1262;SDS011;62267;50.112;8.704;2022-12-18T14:19:51;43.33;;;21.60;;
1262;SDS011;62267;50.112;8.704;2022-12-18T14:22:23;45.80;;;22.15;;
1262;SDS011;62267;50.112;8.704;2022-12-18T14:25:10;42.13;;;21.15;;
1262;SDS011;62267;50.112;8.704;2022-12-18T14:27:42;40.35;;;19.52;;
1262;SDS011;62267;50.112;8.704;2022-12-18T14:33:38;39.92;;;20.65;;
1262;SDS011;62267;50.112;8.704;2022-12-18T14:35:56;38.85;;;19.38;;
1262;SDS011;62267;50.112;8.704;2022-12-18T14:38:29;54.13;;;22.90;;
1262;SDS011;62267;50.112;8.704;2022-12-18T14:40:57;44.63;;;20.38;;
1262;SDS011;62267;50.112;8.704;2022-12-18T14:43:29;44.38;;;20.88;;
1262;SDS011;62267;50.112;8.704;2022-12-18T14:45:56;34.90;;;19.02;;
1262;SDS011;62267;50.112;8.704;2022-12-18T14:48:38;37.80;;;19.45;;
1262;SDS011;62267;50.112;8.704;2022-12-18T14:51:12;40.22;;;20.48;;
1262;SDS011;62267;50.112;8.704;2022-12-18T14:56:23;44.25;;;21.65;;
1262;SDS011;62267;50.112;8.704;2022-12-18T14:58:55;42.40;;;20.52;;
1262;SDS011;62267;50.112;8.704;2022-12-18T15:03:51;41.27;;;21.03;;
1262;SDS011;62267;50.112;8.704;2022-12-18T15:06:26;47.67;;;20.37;;
1262;SDS011;62267;50.112;8.704;2022-12-18T15:08:54;42.60;;;20.60;;
1262;SDS011;62267;50.112;8.704;2022-12-18T15:11:28;42.45;;;20.70;;
1262;SDS011;62267;50.112;8.704;2022-12-18T15:13:57;39.63;;;19.25;;
1262;SDS011;62267;50.112;8.704;2022-12-18T15:16:25;47.00;;;22.10;;
1262;SDS011;62267;50.112;8.704;2022-12-18T15:18:52;41.10;;;20.50;;
1262;SDS011;62267;50.112;8.704;2022-12-18T15:21:20;44.92;;;21.55;;
1262;SDS011;62267;50.112;8.704;2022-12-18T15:23:48;47.23;;;22.60;;
1262;SDS011;62267;50.112;8.704;2022-12-18T15:26:17;45.85;;;22.70;;
1262;SDS011;62267;50.112;8.704;2022-12-18T15:28:48;41.45;;;22.35;;
1262;SDS011;62267;50.112;8.704;2022-12-18T15:36:22;47.90;;;23.67;;
1262;SDS011;62267;50.112;8.704;2022-12-18T15:38:52;52.97;;;21.95;;
1262;SDS011;62267;50.112;8.704;2022-12-18T15:41:21;43.78;;;22.23;;
1262;SDS011;62267;50.112;8.704;2022-12-18T15:43:51;47.45;;;24.33;;
1262;SDS011;62267;50.112;8.704;2022-12-18T15:46:20;54.30;;;23.30;;
1262;SDS011;62267;50.112;8.704;2022-12-18T15:48:51;44.35;;;21.33;;
1262;SDS011;62267;50.112;8.704;2022-12-18T15:51:30;48.97;;;22.08;;
1262;SDS011;62267;50.112;8.704;2022-12-18T15:53:59;55.05;;;22.63;;
1262;SDS011;62267;50.112;8.704;2022-12-18T15:56:27;47.42;;;23.10;;
1262;SDS011;62267;50.112;8.704;2022-12-18T15:59:15;54.67;;;22.55;;
1262;SDS011;62267;50.112;8.704;2022-12-18T16:01:48;48.05;;;22.13;;
1262;SDS011;62267;50.112;8.704;2022-12-18T16:04:17;46.60;;;23.50;;
1262;SDS011;62267;50.112;8.704;2022-12-18T16:06:46;38.72;;;22.88;;
1262;SDS011;62267;50.112;8.704;2022-12-18T16:09:34;49.88;;;25.88;;
1262;SDS011;62267;50.112;8.704;2022-12-18T16:12:01;53.13;;;23.13;;
1262;SDS011;62267;50.112;8.704;2022-12-18T16:14:29;41.72;;;22.70;;
1262;SDS011;62267;50.112;8.704;2022-12-18T16:16:59;51.55;;;24.20;;
1262;SDS011;62267;50.112;8.704;2022-12-18T16:19:26;51.72;;;24.00;;
1262;SDS011;62267;50.112;8.704;2022-12-18T16:21:54;51.95;;;25.45;;
1262;SDS011;62267;50.112;8.704;2022-12-18T16:24:23;51.20;;;23.23;;
1262;SDS011;62267;50.112;8.704;2022-12-18T16:26:51;51.75;;;24.83;;
1262;SDS011;62267;50.112;8.704;2022-12-18T16:29:19;54.45;;;26.65;;
1262;SDS011;62267;50.112;8.704;2022-12-18T16:31:50;46.63;;;23.65;;
1262;SDS011;62267;50.112;8.704;2022-12-18T16:34:36;44.33;;;24.33;;
1262;SDS011;62267;50.112;8.704;2022-12-18T16:37:04;44.42;;;22.10;;